Time;durP1;ratioP1;P1;durP2;ratioP2;P2;SDS_P1;SDS_P2;PMS_P1;PMS_P2;Temp;Humidity;BMP_temperature;BMP_pressure;BME280_temperature;BME280_humidity;BME280_pressure;Samples;Min_cycle;Max_cycle;Signal;HPM_P1;HPM_P2
2022/10/11 00:00:37;;;;;;;;;4.00;4.00;;;;;21.93;47.75;101858.66;5056754;28;46218;-50
2022/10/11 00:03:03;;;;;;;;;6.00;4.00;;;;;21.93;47.62;101858.66;5057282;28;45288;-50
2022/10/11 00:05:29;;;;;;;;;4.00;4.00;;;;;21.95;47.69;101860.38;5064845;28;45319;-51
2022/10/11 00:07:54;;;;;;;;;3.50;3.50;;;;;21.92;47.84;101859.59;5060333;28;45673;-48
2022/10/11 00:10:20;;;;;;;;;5.00;3.00;;;;;21.91;47.45;101865.78;5056400;28;46452;-49
2022/10/11 00:12:46;;;;;;;;;3.50;3.00;;;;;21.92;47.57;101862.22;5056918;28;46022;-50
2022/10/11 00:15:17;;;;;;;;;4.75;4.75;;;;;21.91;47.52;101865.78;5057710;28;45268;-50
2022/10/11 00:17:42;;;;;;;;;6.25;3.00;;;;;21.89;47.55;101862.34;5057891;28;45400;-50
2022/10/11 00:20:08;;;;;;;;;3.75;3.75;;;;;21.89;47.54;101867.63;5056706;28;45439;-51
2022/10/11 00:22:36;;;;;;;;;4.00;3.00;;;;;21.90;47.67;101869.34;5056278;28;45827;-50
2022/10/11 00:25:01;;;;;;;;;3.00;3.00;;;;;21.88;47.47;101868.56;5057088;28;45423;-50
2022/10/11 00:27:27;;;;;;;;;4.00;3.00;;;;;21.87;47.47;101864.25;5057679;28;45335;-49
2022/10/11 00:29:52;;;;;;;;;5.25;3.50;;;;;21.86;47.38;101867.81;5056178;28;45459;-49
2022/10/11 00:32:18;;;;;;;;;5.00;3.25;;;;;21.85;47.45;101863.44;5061425;28;45277;-48
2022/10/11 00:34:43;;;;;;;;;2.00;2.00;;;;;21.86;47.28;101870.44;5064739;28;45300;-49
2022/10/11 00:37:08;;;;;;;;;4.00;3.00;;;;;21.86;47.57;101880.13;5075718;28;44850;-48
2022/10/11 00:39:34;;;;;;;;;5.00;3.00;;;;;21.85;47.35;101873.13;5066019;28;51254;-51
2022/10/11 00:41:59;;;;;;;;;1.75;1.75;;;;;21.85;47.50;101875.75;5073637;28;45365;-52
2022/10/11 00:44:26;;;;;;;;;3.50;3.00;;;;;21.85;47.23;101875.75;5067033;28;45375;-49
2022/10/11 00:46:57;;;;;;;;;3.00;3.00;;;;;21.83;47.51;101881.13;5074645;28;44826;-52
2022/10/11 00:49:44;;;;;;;;;3.75;3.75;;;;;21.83;47.29;101880.28;5059411;28;46401;-52
2022/10/11 00:52:19;;;;;;;;;3.75;2.25;;;;;21.83;47.36;101878.47;5065485;28;45447;-48
2022/10/11 00:54:47;;;;;;;;;3.25;2.00;;;;;21.82;47.53;101882.03;5061175;28;44959;-50
2022/10/11 00:57:18;;;;;;;;;2.00;2.00;;;;;21.80;47.41;101883.88;5058422;28;45338;-49
2022/10/11 00:59:48;;;;;;;;;2.25;2.25;;;;;21.80;47.35;101883.03;5059382;28;46514;-47
2022/10/11 01:02:14;;;;;;;;;3.75;2.00;;;;;21.78;47.43;101875.19;5064182;28;45347;-51
2022/10/11 01:04:41;;;;;;;;;4.00;2.75;;;;;21.80;47.38;101889.16;5058456;28;45419;-50
2022/10/11 01:07:07;;;;;;;;;4.00;2.25;;;;;21.78;47.35;101880.44;5060314;28;45824;-50
2022/10/11 01:09:33;;;;;;;;;1.00;1.00;;;;;21.79;47.46;101884.81;5039313;28;45601;-45
2022/10/11 01:12:02;;;;;;;;;2.75;2.00;;;;;21.78;47.34;101885.72;5067435;28;45207;-49
2022/10/11 01:14:48;;;;;;;;;3.00;3.00;;;;;21.78;47.21;101880.44;5067909;28;45464;-50
2022/10/11 01:17:19;;;;;;;;;3.25;3.25;;;;;21.77;47.00;101884.03;5057470;28;45422;-48
2022/10/11 01:20:25;;;;;;;;;3.25;2.25;;;;;21.76;47.41;101879.69;5056761;28;45598;-48
2022/10/11 01:23:08;;;;;;;;;4.00;2.00;;;;;21.77;47.22;101884.03;5056330;28;45443;-54
2022/10/11 01:26:07;;;;;;;;;2.00;2.00;;;;;21.75;47.07;101880.63;5056276;28;45402;-49
2022/10/11 01:28:38;;;;;;;;;2.00;2.00;;;;;21.73;47.29;101882.44;5061885;28;45786;-48
2022/10/11 01:31:12;;;;;;;;;3.00;2.25;;;;;21.73;46.91;101875.38;5061027;28;45453;-49
2022/10/11 01:33:49;;;;;;;;;2.00;2.00;;;;;21.72;47.16;101881.56;5056156;28;45768;-52
2022/10/11 01:36:30;;;;;;;;;2.75;2.75;;;;;21.74;46.96;101886.81;5057108;28;45289;-49
2022/10/11 01:39:03;;;;;;;;;2.00;2.00;;;;;21.73;46.94;101885.09;5056091;28;45181;-47
2022/10/11 01:41:39;;;;;;;;;2.00;2.00;;;;;21.71;47.19;101885.16;5059137;28;46366;-48
2022/10/11 01:44:06;;;;;;;;;2.25;2.25;;;;;21.71;47.10;101877.25;5060374;28;45365;-48
2022/10/11 01:46:33;;;;;;;;;4.50;1.75;;;;;21.72;46.98;101886.00;5060086;28;45526;-47
2022/10/11 01:49:01;;;;;;;;;2.50;2.00;;;;;21.71;46.90;101882.53;5063852;28;45245;-48
2022/10/11 01:51:32;;;;;;;;;3.00;3.00;;;;;21.71;46.86;101887.81;5063601;28;46784;-51
2022/10/11 01:54:33;;;;;;;;;3.00;2.00;;;;;21.71;47.25;101887.81;5060441;28;45315;-50
2022/10/11 01:57:15;;;;;;;;;3.00;1.75;;;;;21.71;47.13;101881.66;5058793;28;45402;-52
2022/10/11 02:00:02;;;;;;;;;2.50;2.50;;;;;21.70;46.96;101879.94;5059934;28;45351;-48
2022/10/11 02:02:42;;;;;;;;;2.00;2.00;;;;;21.70;46.71;101895.78;5064656;28;45554;-50
2022/10/11 02:05:32;;;;;;;;;3.00;2.00;;;;;21.69;46.94;101887.00;5048141;28;45356;-52
2022/10/11 02:08:03;;;;;;;;;2.00;2.00;;;;;21.68;46.88;101880.03;5062470;28;45414;-53
2022/10/11 02:10:43;;;;;;;;;2.25;2.25;;;;;21.67;47.07;101882.69;5061443;28;45308;-51
2022/10/11 02:13:16;;;;;;;;;2.00;2.00;;;;;21.68;47.00;101879.16;5059922;28;46206;-53
2022/10/11 02:15:45;;;;;;;;;2.25;2.25;;;;;21.67;46.59;101883.56;5059831;28;46041;-54
2022/10/11 02:18:18;;;;;;;;;2.00;2.00;;;;;21.66;46.90;101881.88;5059790;28;45361;-53
2022/10/11 02:20:46;;;;;;;;;2.00;2.00;;;;;21.67;46.94;101877.44;5059108;28;45409;-47
2022/10/11 02:23:16;;;;;;;;;2.00;2.00;;;;;21.67;46.86;101880.06;5061662;28;45390;-49
2022/10/11 02:25:43;;;;;;;;;2.00;2.00;;;;;21.65;46.94;101880.16;5067067;28;45395;-50
2022/10/11 02:28:27;;;;;;;;;1.50;1.50;;;;;21.64;46.76;101875.78;5063280;28;45732;-48
2022/10/11 02:30:53;;;;;;;;;2.50;2.00;;;;;21.65;46.86;101879.31;5041693;28;45335;-50
2022/10/11 02:33:28;;;;;;;;;2.00;2.00;;;;;21.65;46.58;101876.66;5057633;28;48741;-49
2022/10/11 02:36:01;;;;;;;;;3.00;1.00;;;;;21.65;46.62;101879.31;5058728;28;46326;-50
2022/10/11 02:38:34;;;;;;;;;3.75;1.50;;;;;21.65;46.63;101876.66;5058983;28;45322;-51
2022/10/11 02:41:10;;;;;;;;;1.50;1.00;;;;;21.63;46.63;101887.25;5058746;28;45341;-49
2022/10/11 02:43:42;;;;;;;;;3.50;2.00;;;;;21.62;46.91;101889.06;5058000;28;45565;-50
2022/10/11 02:46:09;;;;;;;;;2.00;2.00;;;;;21.63;46.71;101887.25;5058655;28;45323;-50
2022/10/11 02:48:35;;;;;;;;;2.50;2.50;;;;;21.62;46.45;101880.28;5058882;28;45264;-50
2022/10/11 02:51:02;;;;;;;;;1.00;1.00;;;;;21.62;46.70;101888.19;5066868;28;45355;-49
2022/10/11 02:53:27;;;;;;;;;1.25;1.25;;;;;21.61;46.42;101887.34;5066589;28;46098;-47
2022/10/11 02:55:53;;;;;;;;;1.25;1.25;;;;;21.60;46.84;101883.00;5061464;28;45454;-49
2022/10/11 02:58:21;;;;;;;;;3.25;2.75;;;;;21.60;46.72;101885.63;5062132;28;45881;-49
2022/10/11 03:00:47;;;;;;;;;1.00;1.00;;;;;21.59;46.44;101883.91;5057632;28;45562;-55
2022/10/11 03:03:12;;;;;;;;;1.00;1.00;;;;;21.60;46.56;101883.00;5058934;28;45886;-52
2022/10/11 03:05:40;;;;;;;;;2.00;2.00;;;;;21.60;46.47;101888.25;5058817;28;45806;-52
2022/10/11 03:08:11;;;;;;;;;3.00;1.00;;;;;21.59;46.43;101886.53;5057619;28;45524;-51
2022/10/11 03:10:39;;;;;;;;;1.00;1.00;;;;;21.59;46.63;101883.91;5058636;28;45352;-51
2022/10/11 03:13:05;;;;;;;;;1.00;1.00;;;;;21.58;46.33;101879.53;5057887;28;45449;-49
2022/10/11 03:15:30;;;;;;;;;2.00;1.00;;;;;21.59;46.64;101885.69;5058235;28;45271;-51
2022/10/11 03:17:56;;;;;;;;;1.25;1.25;;;;;21.57;46.31;101885.72;5058627;28;45960;-52
2022/10/11 03:20:22;;;;;;;;;1.75;1.75;;;;;21.58;46.55;101884.78;5065221;28;45384;-49
2022/10/11 03:22:47;;;;;;;;;3.25;1.00;;;;;21.58;46.42;101883.94;5063218;28;46445;-50
2022/10/11 03:25:12;;;;;;;;;2.00;1.25;;;;;21.57;46.63;101888.34;5069765;28;45268;-51
2022/10/11 03:27:38;;;;;;;;;1.00;1.00;;;;;21.57;46.14;101887.50;5076010;28;44746;-49
2022/10/11 03:30:04;;;;;;;;;3.00;1.50;;;;;21.55;46.50;101895.47;5058375;28;45699;-52
2022/10/11 03:32:30;;;;;;;;;1.00;1.00;;;;;21.56;46.54;101896.34;5070989;28;46961;-51
2022/10/11 03:34:56;;;;;;;;;1.00;1.00;;;;;21.55;46.38;101895.47;5073452;28;45519;-53
2022/10/11 03:37:21;;;;;;;;;1.00;1.00;;;;;21.54;46.19;101899.06;5058574;28;45388;-52
2022/10/11 03:39:46;;;;;;;;;1.00;1.00;;;;;21.55;46.14;101899.91;5057282;28;45314;-54
2022/10/11 03:42:13;;;;;;;;;2.00;2.00;;;;;21.54;46.28;101899.06;5058007;28;46398;-55
2022/10/11 03:44:38;;;;;;;;;2.00;2.00;;;;;21.54;46.24;101906.09;5057928;28;45327;-54
2022/10/11 03:47:04;;;;;;;;;2.00;2.00;;;;;21.54;46.46;101892.91;5061691;28;45333;-55
2022/10/11 03:49:30;;;;;;;;;1.75;0.75;;;;;21.54;46.25;101893.78;5064699;28;45402;-54
2022/10/11 03:51:55;;;;;;;;;1.00;1.00;;;;;21.53;46.13;101896.47;5057694;28;47023;-50
2022/10/11 03:54:21;;;;;;;;;2.00;2.00;;;;;21.53;46.15;101902.63;5057952;28;45429;-55
2022/10/11 03:56:46;;;;;;;;;0.75;0.75;;;;;21.52;46.22;101897.38;5040084;28;45430;-52
2022/10/11 03:59:12;;;;;;;;;1.00;1.00;;;;;21.52;46.09;101900.91;5057511;28;45923;-54
2022/10/11 04:01:37;;;;;;;;;2.75;1.00;;;;;21.51;46.04;101915.00;5057640;28;45439;-54
2022/10/11 04:04:03;;;;;;;;;1.25;1.25;;;;;21.52;46.25;101906.19;5056114;28;45407;-54
2022/10/11 04:06:29;;;;;;;;;3.00;1.50;;;;;21.50;46.16;101896.63;5057729;28;45783;-55
2022/10/11 04:08:54;;;;;;;;;0.25;0.25;;;;;21.51;45.91;101909.72;5057606;28;45629;-52
2022/10/11 04:11:20;;;;;;;;;2.00;2.00;;;;;21.50;46.08;101905.38;5056731;28;46536;-53
2022/10/11 04:13:45;;;;;;;;;2.00;1.25;;;;;21.50;46.15;101910.66;5057540;28;45376;-52
2022/10/11 04:16:10;;;;;;;;;1.25;1.00;;;;;21.49;46.15;101908.94;5063027;28;45304;-55
2022/10/11 04:18:39;;;;;;;;;1.00;1.00;;;;;21.49;45.85;101911.56;5064379;28;45302;-53
2022/10/11 04:21:04;;;;;;;;;2.50;1.00;;;;;21.47;45.89;101909.00;5058000;28;46687;-56
2022/10/11 04:23:31;;;;;;;;;2.25;1.00;;;;;21.48;45.83;101912.50;5059245;28;45371;-55
2022/10/11 04:25:56;;;;;;;;;2.00;2.00;;;;;21.47;46.01;101909.00;5058724;28;45339;-53
2022/10/11 04:28:22;;;;;;;;;2.00;1.00;;;;;21.46;45.65;101911.69;5054064;28;45368;-50
2022/10/11 04:30:47;;;;;;;;;4.00;1.00;;;;;21.47;45.98;101918.69;5074379;28;46196;-50
2022/10/11 04:33:13;;;;;;;;;1.00;1.00;;;;;21.46;45.80;101912.56;5055116;28;45240;-50
2022/10/11 04:35:38;;;;;;;;;0.75;0.75;;;;;21.46;45.82;101927.53;5069571;28;45419;-52
2022/10/11 04:38:04;;;;;;;;;1.00;1.00;;;;;21.45;46.08;101925.81;5063602;28;45437;-52
2022/10/11 04:40:30;;;;;;;;;2.00;1.00;;;;;21.46;45.68;101919.59;5058527;28;46574;-54
2022/10/11 04:42:55;;;;;;;;;0.75;0.75;;;;;21.45;45.82;101924.03;5042693;28;45883;-51
2022/10/11 04:45:21;;;;;;;;;1.00;1.00;;;;;21.45;46.02;101916.13;5076590;28;45386;-52
2022/10/11 04:47:47;;;;;;;;;1.25;0.50;;;;;21.44;45.62;101927.59;5063729;28;45283;-54
2022/10/11 04:50:12;;;;;;;;;1.00;1.00;;;;;21.44;45.72;101924.13;5057875;28;47299;-54
2022/10/11 04:52:37;;;;;;;;;0.50;0.50;;;;;21.45;45.64;101920.53;5056988;28;45379;-51
2022/10/11 04:55:03;;;;;;;;;0.25;0.25;;;;;21.44;45.56;101922.31;5056421;28;52377;-52
2022/10/11 04:57:28;;;;;;;;;1.00;1.00;;;;;21.44;45.69;101932.03;5057362;28;45324;-52
2022/10/11 04:59:54;;;;;;;;;2.00;1.00;;;;;21.43;45.61;101925.88;5056183;28;46615;-48
2022/10/11 05:02:19;;;;;;;;;1.50;1.50;;;;;21.43;45.75;101932.94;5056383;28;45361;-52
2022/10/11 05:04:45;;;;;;;;;1.00;1.00;;;;;21.41;45.77;101925.06;5061018;28;50061;-49
2022/10/11 05:07:10;;;;;;;;;1.00;1.00;;;;;21.42;45.43;101933.88;5070653;28;45323;-50
2022/10/11 05:09:35;;;;;;;;;2.50;0.25;;;;;21.42;45.63;101939.13;5057829;28;46360;-53
2022/10/11 05:12:01;;;;;;;;;2.75;1.00;;;;;21.42;45.60;101934.72;5063332;28;45367;-53
2022/10/11 05:14:26;;;;;;;;;3.00;0.00;;;;;21.41;45.23;101929.50;5059070;28;45332;-54
2022/10/11 05:16:51;;;;;;;;;1.25;1.25;;;;;21.42;45.18;101928.59;5065316;28;45530;-54
2022/10/11 05:19:16;;;;;;;;;1.25;0.25;;;;;21.39;45.21;101936.63;5056857;28;56389;-50
2022/10/11 05:21:42;;;;;;;;;0.50;0.50;;;;;21.40;45.58;101935.69;5039032;28;45399;-52
2022/10/11 05:24:07;;;;;;;;;1.50;0.25;;;;;21.39;45.29;101936.63;5056365;28;45622;-55
2022/10/11 05:26:32;;;;;;;;;4.00;0.75;;;;;21.38;45.24;101930.50;5056787;28;45540;-54
2022/10/11 05:28:58;;;;;;;;;2.00;2.00;;;;;21.38;45.24;101934.91;5055893;28;47565;-54
2022/10/11 05:31:23;;;;;;;;;0.75;0.75;;;;;21.37;45.33;101938.47;5038053;28;45627;-53
2022/10/11 05:33:49;;;;;;;;;3.75;1.00;;;;;21.36;45.21;101932.34;5056237;28;45424;-51
2022/10/11 05:36:15;;;;;;;;;1.00;1.00;;;;;21.34;45.18;101942.09;5057186;28;45523;-47
2022/10/11 05:38:40;;;;;;;;;0.00;0.00;;;;;21.35;45.23;101938.53;5060479;28;46109;-52
2022/10/11 05:41:11;;;;;;;;;4.25;1.00;;;;;21.34;45.24;101938.56;5065177;28;45264;-53
2022/10/11 05:43:40;;;;;;;;;2.25;1.00;;;;;21.34;45.14;101944.72;5061056;28;45418;-51
2022/10/11 05:46:05;;;;;;;;;1.50;1.00;;;;;21.29;44.49;101944.91;5057670;28;45305;-51
2022/10/11 05:48:30;;;;;;;;;3.25;2.00;;;;;21.28;44.28;101948.47;5057634;28;46349;-54
2022/10/11 05:51:04;;;;;;;;;2.25;1.00;;;;;21.27;44.38;101946.75;5057149;28;48992;-55
2022/10/11 05:53:30;;;;;;;;;2.00;1.00;;;;;21.25;44.02;101953.84;5059837;28;45404;-54
2022/10/11 05:55:56;;;;;;;;;2.00;2.00;;;;;21.21;43.91;101949.66;5044847;28;45634;-53
2022/10/11 05:58:21;;;;;;;;;2.00;1.00;;;;;21.18;43.61;101944.50;5070436;28;45465;-54
2022/10/11 06:00:47;;;;;;;;;2.50;1.00;;;;;21.18;43.71;101944.50;5072784;28;45298;-53
2022/10/11 06:03:12;;;;;;;;;1.00;1.00;;;;;21.15;43.67;101948.13;5054198;28;47780;-48
2022/10/11 06:05:38;;;;;;;;;4.25;1.50;;;;;21.15;43.50;101949.88;5075529;28;45087;-53
2022/10/11 06:08:05;;;;;;;;;7.00;1.00;;;;;21.14;43.35;101942.88;5074822;28;46835;-54
2022/10/11 06:10:31;;;;;;;;;2.00;2.00;;;;;21.12;43.11;101952.63;5056954;28;45270;-52
2022/10/11 06:12:56;;;;;;;;;1.00;1.00;;;;;21.11;43.03;101951.78;5075908;28;45377;-51
2022/10/11 06:15:22;;;;;;;;;3.50;1.00;;;;;21.11;43.07;101950.94;5074822;28;44963;-50
2022/10/11 06:17:47;;;;;;;;;0.00;0.00;;;;;21.10;43.01;101951.88;5065252;28;45379;-55
2022/10/11 06:20:13;;;;;;;;;3.00;1.00;;;;;21.08;43.14;101962.44;5066296;28;45320;-55
2022/10/11 06:22:39;;;;;;;;;1.75;1.75;;;;;21.09;42.63;101958.06;5065834;28;45321;-53
2022/10/11 06:25:05;;;;;;;;;2.75;1.75;;;;;21.07;43.00;101965.16;5065986;28;45437;-54
2022/10/11 06:27:30;;;;;;;;;1.25;1.25;;;;;21.06;42.50;101966.91;5060121;28;46388;-54
2022/10/11 06:29:56;;;;;;;;;1.50;1.50;;;;;21.04;42.50;101963.50;5064781;28;45241;-53
2022/10/11 06:32:21;;;;;;;;;1.00;1.00;;;;;21.04;42.48;101962.63;5065637;28;45298;-53
2022/10/11 06:34:47;;;;;;;;;2.00;2.00;;;;;21.03;42.48;101971.47;5063753;28;45194;-54
2022/10/11 06:37:12;;;;;;;;;2.00;1.00;;;;;21.03;42.64;101971.47;5045126;28;47093;-50
2022/10/11 06:39:38;;;;;;;;;2.75;1.00;;;;;21.02;42.28;101965.34;5061270;28;45280;-52
2022/10/11 06:42:03;;;;;;;;;4.00;1.00;;;;;21.01;42.36;101971.53;5060341;28;45327;-51
2022/10/11 06:44:28;;;;;;;;;4.75;2.25;;;;;21.00;42.40;101968.03;5060996;28;45620;-53
2022/10/11 06:46:54;;;;;;;;;2.00;1.00;;;;;20.99;42.25;101971.59;5059389;28;46738;-53
2022/10/11 06:49:19;;;;;;;;;2.00;1.00;;;;;20.97;42.54;101969.91;5060821;28;45332;-52
2022/10/11 06:51:44;;;;;;;;;3.75;2.00;;;;;20.98;42.14;101972.53;5060384;28;45485;-53
2022/10/11 06:54:10;;;;;;;;;2.75;2.00;;;;;20.97;42.32;101970.78;5061379;28;45205;-53
2022/10/11 06:56:35;;;;;;;;;3.00;2.00;;;;;20.96;42.43;101976.97;5059427;28;45519;-52
2022/10/11 06:59:02;;;;;;;;;1.25;1.25;;;;;20.97;42.31;101983.97;5059526;28;45491;-53
2022/10/11 07:01:27;;;;;;;;;1.25;1.00;;;;;20.97;42.39;101988.38;5059379;28;45379;-51
2022/10/11 07:03:55;;;;;;;;;4.75;2.50;;;;;20.96;42.19;101986.66;5065960;28;45422;-50
2022/10/11 07:06:26;;;;;;;;;1.00;0.75;;;;;20.96;42.09;101986.66;5061486;28;46432;-50
2022/10/11 07:08:52;;;;;;;;;2.00;1.75;;;;;20.95;42.06;101980.53;5041328;28;45404;-51
2022/10/11 07:11:21;;;;;;;;;2.25;2.00;;;;;20.95;42.14;101985.81;5060173;28;45392;-51
2022/10/11 07:13:58;;;;;;;;;4.25;1.00;;;;;20.95;42.22;101996.34;5059956;28;45459;-45
2022/10/11 07:16:24;;;;;;;;;2.50;1.00;;;;;20.95;42.01;101991.06;5066449;28;47914;-49
2022/10/11 07:18:55;;;;;;;;;2.00;1.00;;;;;20.94;41.96;101985.88;5071512;28;44992;-48
2022/10/11 07:21:20;;;;;;;;;1.75;1.75;;;;;20.92;41.68;101996.47;5074158;28;44797;-50
2022/10/11 07:23:46;;;;;;;;;1.25;1.25;;;;;20.93;42.10;101994.69;5076103;28;44922;-53
2022/10/11 07:26:11;;;;;;;;;1.00;1.00;;;;;20.94;41.90;102004.31;5067967;28;45321;-59
2022/10/11 07:28:38;;;;;;;;;1.00;1.00;;;;;20.93;42.62;102005.25;5041383;28;46715;-52
2022/10/11 07:31:18;;;;;;;;;2.50;1.00;;;;;20.92;42.16;102006.16;5063230;28;45232;-57
2022/10/11 07:33:43;;;;;;;;;2.00;2.00;;;;;20.92;42.23;102006.16;5064998;28;45897;-57
2022/10/11 07:36:09;;;;;;;;;2.00;2.00;;;;;20.91;42.17;102005.28;5058312;28;46165;-56
2022/10/11 07:38:39;;;;;;;;;2.75;2.75;;;;;20.92;42.49;102012.28;5057487;28;45818;-56
2022/10/11 07:41:05;;;;;;;;;2.00;2.00;;;;;20.92;42.14;102012.28;5058654;28;45725;-57
2022/10/11 07:43:30;;;;;;;;;2.75;2.75;;;;;20.92;41.92;102006.16;5040872;28;45325;-57
2022/10/11 07:45:59;;;;;;;;;3.00;1.25;;;;;20.93;42.03;102019.25;5058685;28;46508;-58
2022/10/11 07:48:24;;;;;;;;;4.00;2.00;;;;;20.93;41.68;102024.53;5060511;28;45434;-58
2022/10/11 07:50:50;;;;;;;;;1.50;1.50;;;;;20.94;41.77;102025.41;5059521;28;45281;-57
2022/10/11 07:53:15;;;;;;;;;2.25;2.25;;;;;20.93;42.03;102024.53;5059628;28;45525;-58
2022/10/11 07:55:41;;;;;;;;;1.00;1.00;;;;;20.93;41.75;102028.97;5059058;28;46244;-57
2022/10/11 07:58:11;;;;;;;;;1.50;1.50;;;;;20.92;42.15;102025.44;5059219;28;45324;-56
2022/10/11 08:00:38;;;;;;;;;3.00;1.50;;;;;20.92;41.61;102021.97;5064015;28;45429;-59
2022/10/11 08:03:04;;;;;;;;;3.75;2.00;;;;;20.93;41.44;102029.81;5066259;28;45237;-58
2022/10/11 08:05:31;;;;;;;;;2.75;2.50;;;;;20.92;41.57;102030.72;5066163;28;45738;-59
2022/10/11 08:07:57;;;;;;;;;3.50;1.00;;;;;20.94;41.61;102033.31;5065405;28;45311;-58
2022/10/11 08:10:23;;;;;;;;;3.00;2.00;;;;;20.93;41.38;102036.88;5063239;28;45236;-58
2022/10/11 08:12:49;;;;;;;;;4.00;2.00;;;;;20.93;41.68;102035.06;5060011;28;45541;-58
2022/10/11 08:15:15;;;;;;;;;2.25;2.25;;;;;20.93;41.71;102029.81;5067016;28;46010;-58
2022/10/11 08:17:40;;;;;;;;;2.25;2.25;;;;;20.93;41.72;102034.22;5073325;28;45761;-58
2022/10/11 08:20:06;;;;;;;;;2.00;2.00;;;;;20.94;42.02;102038.59;5060185;28;45272;-58
2022/10/11 08:22:34;;;;;;;;;2.00;2.00;;;;;20.92;41.71;102038.63;5040863;28;45411;-58
2022/10/11 08:24:59;;;;;;;;;3.00;1.50;;;;;20.92;42.16;102046.53;5057352;28;63546;-58
2022/10/11 08:27:25;;;;;;;;;2.50;2.50;;;;;20.92;41.50;102046.53;5061525;28;63839;-58
2022/10/11 08:29:50;;;;;;;;;2.75;1.00;;;;;20.92;41.62;102048.31;5063711;28;45277;-58
2022/10/11 08:32:16;;;;;;;;;1.75;1.75;;;;;20.92;42.03;102046.53;5059632;28;45555;-58
2022/10/11 10:19:50;;;;;;;;;2.50;2.50;;;;;20.86;41.00;102025.69;5055842;28;45398;-48
2022/10/11 10:22:22;;;;;;;;;4.25;3.50;;;;;20.88;40.98;102031.78;5057152;28;46698;-53
2022/10/11 10:24:50;;;;;;;;;2.50;2.00;;;;;20.90;41.00;102027.28;5057632;28;45732;-52
2022/10/11 10:27:24;;;;;;;;;3.25;3.25;;;;;20.91;40.94;102031.63;5058962;28;45517;-55
2022/10/11 10:30:01;;;;;;;;;4.00;2.00;;;;;20.92;40.95;102030.72;5058611;28;45513;-50
2022/10/11 10:32:33;;;;;;;;;4.00;3.75;;;;;20.93;40.52;102029.81;5060657;28;46827;-48
2022/10/11 10:35:04;;;;;;;;;2.00;2.00;;;;;20.94;40.58;102033.31;5059332;28;45938;-49
2022/10/11 10:37:39;;;;;;;;;2.50;2.00;;;;;20.97;40.50;102035.81;5060649;28;45292;-53
2022/10/11 10:40:12;;;;;;;;;4.50;3.00;;;;;20.98;40.78;102029.63;5041469;28;45856;-55
2022/10/11 10:42:37;;;;;;;;;1.00;1.00;;;;;20.97;40.73;102028.78;5040370;28;47313;-51
2022/10/11 10:45:04;;;;;;;;;3.50;2.75;;;;;20.99;41.10;102021.69;5057586;28;45518;-51
2022/10/11 10:47:29;;;;;;;;;2.00;2.00;;;;;21.01;41.00;102033.00;5060034;28;45335;-50
2022/10/11 10:50:12;;;;;;;;;7.00;4.00;;;;;21.03;40.62;102034.72;5061357;28;45549;-54
2022/10/11 10:52:44;;;;;;;;;2.00;2.00;;;;;21.03;40.77;102034.72;5058079;28;46867;-48
2022/10/11 10:55:22;;;;;;;;;4.00;4.00;;;;;21.03;40.69;102029.44;5057994;28;45754;-49
2022/10/11 10:58:09;;;;;;;;;2.00;2.00;;;;;21.04;40.68;102023.25;5058214;28;45313;-56
2022/10/11 11:00:44;;;;;;;;;3.00;3.00;;;;;21.03;40.85;102018.91;5058147;28;45532;-51
2022/10/11 11:03:22;;;;;;;;;5.00;2.00;;;;;21.06;40.82;102024.06;5058089;28;46337;-54
2022/10/11 11:06:05;;;;;;;;;6.75;2.50;;;;;21.06;40.46;102027.53;5058509;28;45355;-48
2022/10/11 11:08:50;;;;;;;;;3.25;3.00;;;;;21.06;40.51;102022.28;5058819;28;45715;-52
2022/10/11 11:11:49;;;;;;;;;4.00;2.00;;;;;21.07;40.50;102020.50;5040555;28;45641;-52
2022/10/11 11:14:38;;;;;;;;;3.75;2.25;;;;;21.07;40.86;102024.00;5060881;28;45518;-47
2022/10/11 11:17:18;;;;;;;;;2.25;2.25;;;;;21.09;40.74;102018.69;5063079;28;45265;-51
2022/10/11 11:20:20;;;;;;;;;3.00;2.75;;;;;21.08;40.88;102017.81;5059004;28;45448;-48
2022/10/11 11:23:01;;;;;;;;;3.50;3.00;;;;;21.10;40.46;102015.97;5058993;28;45249;-50
2022/10/11 11:25:55;;;;;;;;;3.50;3.00;;;;;21.11;40.54;102022.13;5064543;28;46145;-51
2022/10/11 11:28:42;;;;;;;;;3.00;3.00;;;;;21.11;40.38;102011.56;5066669;28;45375;-55
2022/10/11 11:31:14;;;;;;;;;4.00;2.50;;;;;21.10;40.79;102005.44;5058546;28;45422;-52
2022/10/11 11:33:59;;;;;;;;;4.25;3.00;;;;;21.11;40.26;102004.50;5059682;28;45373;-51
2022/10/11 11:36:48;;;;;;;;;4.75;1.75;;;;;21.13;40.73;101999.16;5058401;28;46157;-51
2022/10/11 11:39:29;;;;;;;;;3.50;2.50;;;;;21.13;40.28;101999.16;5058305;28;45731;-53
2022/10/11 11:42:03;;;;;;;;;3.00;3.00;;;;;21.14;40.63;102000.88;5058375;28;45367;-51
2022/10/11 11:44:30;;;;;;;;;2.25;2.00;;;;;21.16;40.63;101996.41;5063021;28;45281;-49
2022/10/11 11:47:21;;;;;;;;;4.00;3.00;;;;;21.15;40.46;101990.31;5040851;28;47862;-52
2022/10/11 11:50:00;;;;;;;;;3.00;3.00;;;;;21.17;40.56;101995.50;5050858;28;45151;-53
2022/10/11 11:52:39;;;;;;;;;2.50;2.50;;;;;21.18;40.74;101991.94;5061442;28;45417;-57
2022/10/11 11:55:11;;;;;;;;;3.00;3.00;;;;;21.17;40.21;101990.22;5060208;28;45474;-52
2022/10/11 11:58:03;;;;;;;;;4.00;3.00;;;;;21.14;40.16;101982.44;5060371;28;46513;-53
2022/10/11 12:00:41;;;;;;;;;4.50;3.75;;;;;21.09;39.66;101977.34;5021624;28;45329;-52
2022/10/11 12:03:26;;;;;;;;;3.25;3.25;;;;;21.07;39.49;101967.78;5057896;28;45394;-47
2022/10/11 12:06:16;;;;;;;;;3.00;3.00;;;;;21.01;39.57;101968.91;5058608;28;45379;-50
2022/10/11 12:08:45;;;;;;;;;3.00;3.00;;;;;20.97;39.53;101972.56;5059023;28;45504;-48
2022/10/11 12:11:28;;;;;;;;;4.50;3.25;;;;;20.95;39.93;101970.00;5061501;28;45327;-49
2022/10/11 12:13:54;;;;;;;;;5.00;3.25;;;;;20.91;39.63;101965.75;5046256;28;45305;-51
2022/10/11 12:16:21;;;;;;;;;5.00;3.75;;;;;20.88;39.66;101965.88;5059006;28;45220;-53
2022/10/11 12:18:52;;;;;;;;;4.00;4.00;;;;;20.88;39.64;101965.88;5057965;28;45602;-48
2022/10/11 12:21:42;;;;;;;;;2.75;2.50;;;;;20.84;39.53;101956.38;5058409;28;45814;-48
2022/10/11 12:24:11;;;;;;;;;3.00;3.00;;;;;20.85;39.78;101953.66;5046951;28;45489;-50
2022/10/11 12:26:40;;;;;;;;;4.25;3.50;;;;;20.83;39.92;101955.53;5057626;28;45547;-51
2022/10/11 12:29:18;;;;;;;;;4.50;3.25;;;;;20.81;40.00;101954.72;5057190;28;46651;-57
2022/10/11 12:31:50;;;;;;;;;3.50;2.50;;;;;20.81;39.79;101953.84;5057676;28;45406;-47
2022/10/11 12:34:34;;;;;;;;;6.25;2.25;;;;;20.82;39.97;101950.31;5058303;28;45233;-46
2022/10/11 12:37:21;;;;;;;;;4.50;2.00;;;;;20.81;39.75;101946.81;5057775;28;45420;-46
2022/10/11 12:39:49;;;;;;;;;6.25;2.00;;;;;20.81;39.82;101945.94;5021259;28;45625;-48
2022/10/11 12:42:28;;;;;;;;;4.00;3.00;;;;;20.80;39.48;101944.22;5061469;28;45553;-49
2022/10/11 12:45:14;;;;;;;;;3.75;3.75;;;;;20.79;39.79;101938.13;5061205;28;45385;-49
2022/10/11 12:47:58;;;;;;;;;2.00;2.00;;;;;20.78;39.56;101940.81;5076965;28;45567;-46
2022/10/11 12:50:51;;;;;;;;;5.75;3.50;;;;;20.78;40.02;101938.19;5059605;28;46511;-52
2022/10/11 12:53:43;;;;;;;;;3.75;3.75;;;;;20.78;39.49;101938.19;5056573;28;45242;-51
2022/10/11 12:56:15;;;;;;;;;3.75;2.25;;;;;20.77;39.57;101939.94;5046725;28;45666;-53
2022/10/11 12:58:46;;;;;;;;;3.00;3.00;;;;;20.78;39.79;101930.28;5057532;28;45395;-46
2022/10/11 13:01:17;;;;;;;;;2.00;2.00;;;;;20.79;39.49;101931.97;5056757;28;46361;-51
2022/10/11 13:03:59;;;;;;;;;3.00;2.00;;;;;20.78;40.15;101925.84;5056155;28;45461;-57
2022/10/11 13:06:46;;;;;;;;;4.00;3.00;;;;;20.78;39.78;101933.75;5062088;28;45217;-51
2022/10/11 13:09:14;;;;;;;;;6.50;4.25;;;;;20.80;39.85;101926.66;5062596;28;45450;-50
2022/10/11 13:11:49;;;;;;;;;3.00;3.00;;;;;20.80;39.59;101928.41;5057157;28;46165;-54
2022/10/11 13:14:19;;;;;;;;;2.50;2.00;;;;;20.77;39.47;101921.50;5057007;28;45932;-54
2022/10/11 13:17:03;;;;;;;;;4.75;3.50;;;;;20.75;39.70;101925.13;5057515;28;45575;-56
2022/10/11 13:19:33;;;;;;;;;4.75;3.00;;;;;20.73;39.69;101921.66;5057331;28;45253;-56
2022/10/11 13:22:02;;;;;;;;;3.75;2.25;;;;;20.73;39.93;101911.97;5039569;28;47933;-53
2022/10/11 13:24:37;;;;;;;;;5.75;4.00;;;;;20.73;40.07;101913.75;5057674;28;45892;-54